createdAt,value
2023-02-25T00:02:38.908Z,2.7
2023-02-25T00:07:35.359Z,2.7
2023-02-25T00:12:31.847Z,2.7
2023-02-25T00:23:39.041Z,2.6
2023-02-25T00:28:35.666Z,2.6
2023-02-25T00:33:32.107Z,2.6
2023-02-25T00:38:28.665Z,2.6
2023-02-25T00:44:39.368Z,2.7
2023-02-25T00:49:35.841Z,2.6
2023-02-25T00:54:32.372Z,2.6
2023-02-25T00:59:28.925Z,2.6
2023-02-25T01:05:39.556Z,2.5
2023-02-25T01:10:36.089Z,2.6
2023-02-25T01:15:32.627Z,2.6
2023-02-25T01:20:29.152Z,2.6
2023-02-25T01:26:39.902Z,2.6
2023-02-25T01:31:36.552Z,2.6
2023-02-25T01:36:32.883Z,2.6
2023-02-25T01:41:29.447Z,2.6
2023-02-25T01:47:40.160Z,2.6
2023-02-25T01:52:36.622Z,2.6
2023-02-25T01:57:33.163Z,2.6
2023-02-25T02:01:16.069Z,2.5
2023-02-25T02:02:29.783Z,2.5
2023-02-25T02:08:40.338Z,2.5
2023-02-25T02:13:36.889Z,2.5
2023-02-25T02:18:33.767Z,2.3
2023-02-25T02:23:29.951Z,2.4
2023-02-25T02:29:40.579Z,2.4
2023-02-25T02:34:37.155Z,2.3
2023-02-25T02:39:33.667Z,2.3
2023-02-25T02:44:30.206Z,2.3
2023-02-25T02:49:26.717Z,2.3
2023-02-25T02:55:37.412Z,2.3
2023-02-25T03:00:33.950Z,2.3
2023-02-25T03:05:30.473Z,2.2
2023-02-25T03:10:27.003Z,2.2
2023-02-25T03:16:37.713Z,2.2
2023-02-25T03:21:34.293Z,2.2
2023-02-25T03:26:30.741Z,2.2
2023-02-25T03:31:27.297Z,2.2
2023-02-25T03:37:37.938Z,2.2
2023-02-25T03:42:34.501Z,2.2
2023-02-25T03:47:30.958Z,2.2
2023-02-25T03:52:27.530Z,2.2
2023-02-25T03:56:10.240Z,2.2
2023-02-25T03:58:38.248Z,2.2
2023-02-25T04:03:34.691Z,2.2
2023-02-25T04:08:31.202Z,2.2
2023-02-25T04:13:27.873Z,2.2
2023-02-25T04:19:38.463Z,2.2
2023-02-25T04:24:35.008Z,2.1
2023-02-25T04:29:31.461Z,2
2023-02-25T04:34:28.108Z,1.9
2023-02-25T04:40:38.717Z,1.8
2023-02-25T04:45:35.231Z,1.8
2023-02-25T04:50:31.743Z,1.8
2023-02-25T04:55:28.365Z,1.8
2023-02-25T05:01:39.064Z,1.8
2023-02-25T05:06:35.470Z,1.8
2023-02-25T05:11:32.183Z,1.9
2023-02-25T05:16:28.622Z,1.9
2023-02-25T05:22:39.221Z,1.9
2023-02-25T05:27:35.739Z,1.9
2023-02-25T05:32:32.475Z,1.9
2023-02-25T05:37:28.831Z,1.9
2023-02-25T05:43:39.487Z,1.9
2023-02-25T05:48:35.989Z,1.9
2023-02-25T05:53:32.608Z,1.9
2023-02-25T05:58:29.178Z,2
2023-02-25T06:04:39.708Z,2
2023-02-25T06:09:36.286Z,2
2023-02-25T06:14:32.777Z,2
2023-02-25T06:19:29.406Z,2
2023-02-25T06:24:25.836Z,2.1
2023-02-25T06:30:36.542Z,2.1
2023-02-25T06:35:33.050Z,2.1
2023-02-25T06:40:29.715Z,2.1
2023-02-25T06:46:40.202Z,2.2
2023-02-25T06:51:36.907Z,2.2
2023-02-25T06:56:33.327Z,2.1
2023-02-25T07:01:29.918Z,2.3
2023-02-25T07:06:26.414Z,2.3
2023-02-25T07:12:37.049Z,2.3
2023-02-25T07:17:33.682Z,2.2
2023-02-25T07:22:30.109Z,2.4
2023-02-25T07:27:26.751Z,2.3
2023-02-25T07:33:37.295Z,2.4
2023-02-25T07:38:33.935Z,2.3
2023-02-25T07:43:30.494Z,2.4
2023-02-25T07:49:40.985Z,2.3
2023-02-25T07:54:37.570Z,2.4
2023-02-25T08:04:30.673Z,2.5
2023-02-25T08:09:27.150Z,2.5
2023-02-25T08:15:37.910Z,2.7
2023-02-25T08:25:30.861Z,2.5
2023-02-25T08:30:27.373Z,2.7
2023-02-25T08:36:38.126Z,3
2023-02-25T08:41:34.678Z,3
2023-02-25T08:46:31.143Z,3
2023-02-25T08:51:27.657Z,3.2
2023-02-25T08:57:38.355Z,3.5
2023-02-25T09:02:34.866Z,3.4
2023-02-25T09:07:31.502Z,3.5
2023-02-25T09:12:27.908Z,3.2
2023-02-25T09:18:38.595Z,3.1
2023-02-25T09:23:35.158Z,2.5
2023-02-25T09:28:31.604Z,2.2
2023-02-25T09:33:28.254Z,2
2023-02-25T09:39:38.821Z,2
2023-02-25T09:44:35.362Z,2
2023-02-25T09:49:31.938Z,2
2023-02-25T09:54:28.404Z,2
2023-02-25T10:00:39.092Z,2.1
2023-02-25T10:05:35.657Z,2.2
2023-02-25T10:10:32.148Z,2.6
2023-02-25T10:15:28.767Z,2.6
2023-02-25T10:21:39.349Z,2.6
2023-02-25T10:26:35.902Z,2.8
2023-02-25T10:31:32.737Z,3.1
2023-02-25T10:36:29.003Z,3.4
2023-02-25T10:42:39.603Z,4.1
2023-02-25T10:47:36.140Z,4.5
2023-02-25T10:52:32.702Z,4.5
2023-02-25T10:57:29.257Z,4.7
2023-02-25T11:03:39.892Z,4.5
2023-02-25T11:08:36.396Z,4.7
2023-02-25T11:13:32.925Z,5.5
2023-02-25T11:18:29.476Z,4.2
2023-02-25T11:24:40.174Z,3.5
2023-02-25T11:29:36.646Z,4
2023-02-25T11:34:33.273Z,4.3
2023-02-25T11:39:29.712Z,4.6
2023-02-25T11:44:26.275Z,4.7
2023-02-25T11:50:36.910Z,5.5
2023-02-25T11:55:33.499Z,5.5
2023-02-25T12:00:30.110Z,6
2023-02-25T12:06:40.726Z,5.2
2023-02-25T12:11:37.160Z,4.6
2023-02-25T12:16:33.861Z,3.9
2023-02-25T12:21:30.209Z,3.3
2023-02-25T12:26:26.762Z,3.5
2023-02-25T12:32:37.447Z,3.9
2023-02-25T12:42:30.504Z,4.6
2023-02-25T12:47:27.025Z,4
2023-02-25T12:53:37.691Z,4.2
2023-02-25T12:58:34.320Z,4.5
2023-02-25T13:03:30.773Z,4.9
2023-02-25T13:14:38.017Z,5.9
2023-02-25T13:19:34.550Z,4.5
2023-02-25T13:24:31.009Z,3.9
2023-02-25T13:29:27.542Z,2.7
2023-02-25T13:35:38.216Z,2.4
2023-02-25T13:40:34.830Z,5.9
2023-02-25T13:45:31.266Z,5.1
2023-02-25T13:50:27.895Z,5.6
2023-02-25T13:56:38.470Z,3.4
2023-02-25T14:01:35.085Z,1.7
2023-02-25T14:06:31.627Z,1.9
2023-02-25T14:11:28.131Z,2.2
2023-02-25T14:17:38.807Z,3.2
2023-02-25T14:22:36.127Z,1.3
2023-02-25T14:27:31.789Z,0.6
2023-02-25T14:32:28.521Z,0.6
2023-02-25T14:38:39.050Z,1.4
2023-02-25T14:43:35.520Z,1.1
2023-02-25T14:48:32.162Z,-1.9
2023-02-25T14:53:28.604Z,-2.9
2023-02-25T14:59:39.289Z,-2
2023-02-25T15:04:35.817Z,0.2
2023-02-25T15:09:32.338Z,-1.3
2023-02-25T15:14:28.825Z,-1.1
2023-02-25T15:20:39.520Z,-2
2023-02-25T15:25:36.045Z,-2.8
2023-02-25T15:30:32.654Z,-3.4
2023-02-25T15:35:29.237Z,-1.6
2023-02-25T15:41:39.863Z,-1.5
2023-02-25T15:46:36.443Z,-1.9
2023-02-25T15:51:32.869Z,-1.9
2023-02-25T15:56:29.381Z,-2.5
2023-02-25T16:02:40.024Z,-3.6
2023-02-25T16:07:36.586Z,-2.6
2023-02-25T16:12:33.111Z,-4.3
2023-02-25T16:17:29.634Z,-3.4
2023-02-25T16:23:40.270Z,-3.3
2023-02-25T16:28:36.811Z,-3.5
2023-02-25T16:33:33.478Z,-4.5
2023-02-25T16:38:29.988Z,-5.5
2023-02-25T16:43:26.416Z,-4.1
2023-02-25T16:49:37.133Z,-5.3
2023-02-25T16:54:33.710Z,-5.4
2023-02-25T16:59:30.449Z,-5.1
2023-02-25T17:05:40.820Z,-5
2023-02-25T17:10:37.349Z,-4.7
2023-02-25T17:15:33.871Z,-5.6
2023-02-25T17:20:30.385Z,-3.8
2023-02-25T17:25:27.917Z,-4.9
2023-02-25T17:31:37.674Z,-4.8
2023-02-25T17:36:34.140Z,-3.3
2023-02-25T17:41:30.643Z,-4
2023-02-25T17:52:37.869Z,-4.4
2023-02-25T17:57:34.415Z,-4.1
2023-02-25T18:02:30.970Z,-3.8
2023-02-25T18:07:27.475Z,-4.4
2023-02-25T18:13:38.190Z,-4.4
2023-02-25T18:18:34.764Z,-4.5
2023-02-25T18:23:31.186Z,-4.6
2023-02-25T18:28:27.755Z,-4.6
2023-02-25T18:34:38.558Z,-4.8
2023-02-25T18:39:34.993Z,-4.6
2023-02-25T18:44:31.434Z,-4
2023-02-25T18:49:28.075Z,-3.2
2023-02-25T18:55:38.648Z,-4.1
2023-02-25T19:00:35.212Z,-3.1
2023-02-25T19:05:31.700Z,-3.1
2023-02-25T19:16:39.004Z,-2.5
2023-02-25T19:21:35.451Z,-3
2023-02-25T19:26:32.075Z,-2.8
2023-02-25T19:31:28.551Z,-2.4
2023-02-25T19:37:39.234Z,-2.4
2023-02-25T19:42:35.690Z,-2.3
2023-02-25T19:47:32.220Z,-2
2023-02-25T19:52:28.773Z,-2.4
2023-02-25T19:58:39.479Z,-1.8
2023-02-25T20:03:36.030Z,-2
2023-02-25T20:08:32.573Z,-2.3
2023-02-25T20:13:29.046Z,-0.9
2023-02-25T20:19:39.678Z,-1.2
2023-02-25T20:24:36.197Z,-0.3
2023-02-25T20:29:32.862Z,-0.9
2023-02-25T20:34:29.395Z,-1.5
2023-02-25T20:40:39.982Z,-1.5
2023-02-25T20:45:36.503Z,-1.1
2023-02-25T20:50:33.079Z,-0.9
2023-02-25T20:55:29.523Z,-0.8
2023-02-25T21:00:26.072Z,-0.4
2023-02-25T21:06:36.763Z,-0.7
2023-02-25T21:11:33.324Z,-0.7
2023-02-25T21:16:29.881Z,-0.6
2023-02-25T21:22:40.450Z,-0.6
2023-02-25T21:27:36.986Z,-0.9
2023-02-25T21:32:33.522Z,-1.2
2023-02-25T21:37:30.081Z,-1.2
2023-02-25T21:42:26.602Z,-1.2
2023-02-25T21:48:37.283Z,-0.9
2023-02-25T21:53:33.862Z,-1.2
2023-02-25T21:58:30.315Z,-1.3
2023-02-25T22:03:26.839Z,-1.4
2023-02-25T22:09:37.545Z,-1.5
2023-02-25T22:14:34.107Z,-1.7
2023-02-25T22:19:30.540Z,-1.7
2023-02-25T22:24:27.099Z,-1.8
2023-02-25T22:30:37.797Z,-1.3
2023-02-25T22:35:34.355Z,-1.2
2023-02-25T22:40:30.837Z,-0.5
2023-02-25T22:45:27.368Z,-1
2023-02-25T22:51:38.144Z,-0.8
2023-02-25T22:56:34.629Z,-0.9
2023-02-25T23:01:31.113Z,-1.1
2023-02-25T23:06:42.181Z,-1
2023-02-25T23:12:38.284Z,-1.2
2023-02-25T23:17:34.919Z,-1.4
2023-02-25T23:22:32.886Z,-1.4
2023-02-25T23:27:27.935Z,-1.5
2023-02-25T23:33:38.535Z,-1.5
2023-02-25T23:38:35.070Z,-1.5
2023-02-25T23:43:31.592Z,-1.5
2023-02-25T23:54:38.839Z,-1.4
2023-02-25T23:59:35.360Z,-1.5
